Time;durP1;ratioP1;P1;durP2;ratioP2;P2;SDS_P1;SDS_P2;PMS_P1;PMS_P2;Temp;Humidity;BMP_temperature;BMP_pressure;BME280_temperature;BME280_humidity;BME280_pressure;Samples;Min_cycle;Max_cycle;Signal;HPM_P1;HPM_P2
2022/10/10 00:04:00;;;;;;;2.08;1.17;;;20.90;67.50;;;;;;10351193;28;20136;-41
2022/10/10 00:09:03;;;;;;;4.38;1.25;;;20.90;67.50;;;;;;10352855;28;20447;-41
2022/10/10 00:14:05;;;;;;;3.85;1.40;;;20.80;67.60;;;;;;10354954;28;20107;-40
2022/10/10 00:19:08;;;;;;;3.13;1.10;;;20.80;67.50;;;;;;10352495;28;21682;-45
2022/10/10 00:24:10;;;;;;;2.67;0.90;;;20.70;67.70;;;;;;10352519;28;20911;-41
2022/10/10 00:29:12;;;;;;;3.33;1.20;;;20.70;67.60;;;;;;10353437;28;20088;-40
2022/10/10 00:34:15;;;;;;;3.13;1.42;;;20.70;67.50;;;;;;10352538;28;20060;-40
2022/10/10 00:39:17;;;;;;;7.28;1.17;;;20.70;67.50;;;;;;10355809;28;20047;-40
2022/10/10 00:44:19;;;;;;;4.05;1.20;;;20.70;67.60;;;;;;10356601;28;20153;-41
2022/10/10 00:49:25;;;;;;;2.97;1.23;;;20.70;67.70;;;;;;10355023;28;20474;-38
2022/10/10 00:54:29;;;;;;;3.58;1.25;;;20.60;67.60;;;;;;10356072;28;20049;-42
2022/10/10 00:59:32;;;;;;;2.55;1.35;;;20.70;67.50;;;;;;10355729;28;20073;-41
2022/10/10 01:04:39;;;;;;;3.15;1.20;;;20.70;67.50;;;;;;10347458;28;20196;-37
2022/10/10 01:09:43;;;;;;;4.63;1.50;;;20.70;67.60;;;;;;10355112;28;20052;-41
2022/10/10 01:14:52;;;;;;;1.95;1.10;;;20.60;67.70;;;;;;10353667;28;20053;-37
2022/10/10 01:20:27;;;;;;;3.47;1.35;;;20.60;67.80;;;;;;10356330;28;20053;-41
2022/10/10 01:25:39;;;;;;;6.43;1.50;;;20.50;67.80;;;;;;10354218;28;20046;-38
2022/10/10 01:30:43;;;;;;;3.45;1.52;;;20.50;67.90;;;;;;10352629;28;20145;-41
2022/10/10 01:35:53;;;;;;;2.13;1.30;;;20.50;67.60;;;;;;10355013;28;20592;-41
2022/10/10 01:41:01;;;;;;;3.33;1.63;;;20.50;67.90;;;;;;10353048;28;20056;-39
2022/10/10 01:46:11;;;;;;;2.65;1.45;;;20.50;67.70;;;;;;10354223;28;20196;-41
2022/10/10 01:51:22;;;;;;;2.40;1.33;;;20.50;67.70;;;;;;10353436;28;20144;-39
2022/10/10 01:56:34;;;;;;;4.38;1.35;;;20.50;67.80;;;;;;10352231;28;20132;-39
2022/10/10 02:01:45;;;;;;;1.83;1.20;;;20.50;67.80;;;;;;10351712;28;20069;-43
2022/10/10 02:06:52;;;;;;;3.23;1.33;;;20.50;67.80;;;;;;10353192;28;20507;-39
2022/10/10 02:11:57;;;;;;;2.22;1.40;;;20.40;67.80;;;;;;10360895;28;20141;-40
2022/10/10 02:17:02;;;;;;;1.90;1.13;;;20.40;67.10;;;;;;10362445;28;20077;-40
2022/10/10 02:22:05;;;;;;;1.88;1.20;;;20.40;67.90;;;;;;10359906;28;20124;-41
2022/10/10 02:27:11;;;;;;;3.40;1.27;;;20.30;68.00;;;;;;10360588;28;20529;-40
2022/10/10 02:32:20;;;;;;;2.83;1.10;;;20.30;68.00;;;;;;10361257;28;20660;-39
2022/10/10 02:37:23;;;;;;;2.05;1.30;;;20.30;67.90;;;;;;10360494;28;20052;-39
2022/10/10 02:42:27;;;;;;;2.70;1.00;;;20.30;67.90;;;;;;10359413;28;20121;-43
2022/10/10 02:47:30;;;;;;;3.20;1.05;;;20.30;67.90;;;;;;10359213;28;20050;-39
2022/10/10 02:52:33;;;;;;;2.25;1.10;;;20.20;68.20;;;;;;10359624;28;20060;-41
2022/10/10 02:57:34;;;;;;;;;;;20.30;67.90;;;;;;10359120;28;20137;-38
2022/10/10 03:02:38;;;;;;;2.30;1.30;;;20.30;68.00;;;;;;10360211;28;19925;-38
2022/10/10 03:07:40;;;;;;;1.95;1.15;;;20.20;68.30;;;;;;10358890;28;20189;-40
2022/10/10 03:12:41;;;;;;;1.98;1.20;;;20.20;68.10;;;;;;10358903;28;20081;-41
2022/10/10 03:17:45;;;;;;;2.35;0.93;;;20.10;68.30;;;;;;10360330;28;20137;-40
2022/10/10 03:22:46;;;;;;;2.45;1.35;;;20.10;68.40;;;;;;10358001;28;20153;-38
2022/10/10 03:27:48;;;;;;;2.47;1.00;;;20.10;68.60;;;;;;10358449;28;20129;-39
2022/10/10 03:32:51;;;;;;;1.90;1.20;;;20.10;68.30;;;;;;10358869;28;20128;-39
2022/10/10 03:37:53;;;;;;;2.40;1.00;;;20.10;68.20;;;;;;10358272;28;20141;-37
2022/10/10 03:42:55;;;;;;;1.15;1.00;;;20.10;68.30;;;;;;10357191;28;20078;-38
2022/10/10 03:47:58;;;;;;;4.15;0.95;;;20.10;68.40;;;;;;10358393;28;20089;-41
2022/10/10 03:53:00;;;;;;;1.70;1.15;;;20.10;68.40;;;;;;10356975;28;20056;-40
2022/10/10 03:58:02;;;;;;;2.60;1.30;;;20.10;68.40;;;;;;10355862;28;20057;-41
2022/10/10 04:03:06;;;;;;;2.33;1.30;;;20.10;68.30;;;;;;10356689;28;20052;-37
2022/10/10 04:08:09;;;;;;;2.47;1.05;;;20.10;68.30;;;;;;10355314;28;20045;-40
2022/10/10 04:13:11;;;;;;;1.73;0.88;;;20.10;68.30;;;;;;10356533;28;20046;-40
2022/10/10 04:18:14;;;;;;;3.92;1.27;;;20.00;68.60;;;;;;10356381;28;20073;-39
2022/10/10 04:23:16;;;;;;;1.77;1.10;;;20.00;68.50;;;;;;10354788;28;20049;-40
2022/10/10 04:28:18;;;;;;;;;;;20.00;68.40;;;;;;10355007;28;20085;-39
2022/10/10 04:33:23;;;;;;;2.33;1.10;;;20.00;68.60;;;;;;10355022;28;19921;-40
2022/10/10 04:38:25;;;;;;;1.20;1.05;;;19.90;68.70;;;;;;10353659;28;20555;-39
2022/10/10 04:43:27;;;;;;;2.30;1.38;;;19.90;68.50;;;;;;10354122;28;20425;-38
2022/10/10 04:48:30;;;;;;;2.25;1.10;;;19.90;68.80;;;;;;10351852;28;20140;-40
2022/10/10 04:53:32;;;;;;;2.00;1.25;;;19.90;68.60;;;;;;10354322;28;20054;-39
2022/10/10 04:58:34;;;;;;;2.03;1.23;;;19.90;68.80;;;;;;10353310;28;20073;-40
2022/10/10 05:03:37;;;;;;;2.25;1.30;;;20.00;68.40;;;;;;10348670;28;20042;-38
2022/10/10 05:08:38;;;;;;;2.67;1.10;;;19.90;68.60;;;;;;10354928;28;20053;-37
2022/10/10 05:13:40;;;;;;;3.80;1.17;;;19.90;68.50;;;;;;10352202;28;20046;-39
2022/10/10 05:18:44;;;;;;;2.60;0.85;;;19.90;68.70;;;;;;10345750;28;20046;-40
2022/10/10 05:23:45;;;;;;;3.58;1.50;;;19.80;69.10;;;;;;10351758;28;20128;-38
2022/10/10 05:28:47;;;;;;;2.70;1.30;;;19.80;68.90;;;;;;10352909;28;20141;-41
2022/10/10 05:33:50;;;;;;;3.60;0.93;;;19.70;69.20;;;;;;10350025;28;20085;-37
2022/10/10 05:38:52;;;;;;;2.97;1.30;;;19.80;69.00;;;;;;10348849;28;20137;-42
2022/10/10 05:43:54;;;;;;;3.30;1.30;;;19.70;69.80;;;;;;10352239;28;20140;-40
2022/10/10 05:48:57;;;;;;;3.03;1.17;;;19.80;69.10;;;;;;10360018;28;20060;-39
2022/10/10 05:53:59;;;;;;;1.95;0.85;;;19.70;69.40;;;;;;10359107;28;20047;-40
2022/10/10 05:59:01;;;;;;;3.38;1.85;;;19.90;69.30;;;;;;10358508;28;20116;-39
2022/10/10 06:04:04;;;;;;;5.40;2.85;;;19.70;69.10;;;;;;10359318;28;20643;-36
2022/10/10 06:09:06;;;;;;;10.73;5.43;;;19.60;69.60;;;;;;10358654;28;20457;-40
2022/10/10 06:14:09;;;;;;;16.02;7.57;;;19.70;69.10;;;;;;10358606;28;20112;-39
2022/10/10 06:19:12;;;;;;;10.60;5.05;;;19.70;69.10;;;;;;10357603;28;20046;-38
2022/10/10 06:24:14;;;;;;;5.82;3.15;;;19.60;69.30;;;;;;10360096;28;20108;-37
2022/10/10 06:29:16;;;;;;;7.40;3.38;;;19.50;69.60;;;;;;10357442;28;20088;-40
2022/10/10 06:34:19;;;;;;;2.70;1.75;;;19.60;69.50;;;;;;10357716;28;20116;-39
2022/10/10 06:39:21;;;;;;;2.88;1.38;;;19.60;69.30;;;;;;10357358;28;20128;-41
2022/10/10 06:44:23;;;;;;;3.58;1.40;;;19.70;69.30;;;;;;10359418;28;20046;-40
2022/10/10 06:49:28;;;;;;;2.83;1.63;;;19.70;69.80;;;;;;10358209;28;21076;-39
2022/10/10 06:54:29;;;;;;;10.85;2.20;;;19.60;69.60;;;;;;10357031;28;20057;-42
2022/10/10 06:59:31;;;;;;;4.22;1.70;;;19.20;70.00;;;;;;10356384;28;20426;-39
2022/10/10 07:04:35;;;;;;;4.85;1.52;;;19.20;70.40;;;;;;10355546;28;20104;-39
2022/10/10 07:09:36;;;;;;;6.25;2.40;;;19.20;70.70;;;;;;10357365;28;20140;-39
2022/10/10 07:14:38;;;;;;;3.13;2.50;;;19.50;70.00;;;;;;10357091;28;20069;-41
2022/10/10 07:19:41;;;;;;;6.35;1.95;;;19.40;70.10;;;;;;10357553;28;20122;-38
2022/10/10 07:24:43;;;;;;;3.25;1.77;;;19.50;69.70;;;;;;10357620;28;20052;-42
2022/10/10 07:29:45;;;;;;;3.15;1.65;;;19.60;69.50;;;;;;10356863;28;20137;-40
2022/10/10 07:34:49;;;;;;;3.00;1.30;;;19.70;69.10;;;;;;10356954;28;20140;-44
2022/10/10 07:39:52;;;;;;;3.60;1.60;;;19.40;70.20;;;;;;10356213;28;20128;-39
2022/10/10 07:44:54;;;;;;;5.35;1.90;;;19.00;71.60;;;;;;10355570;28;20054;-39
2022/10/10 07:49:57;;;;;;;4.20;2.15;;;18.80;72.80;;;;;;10355378;28;20506;-43
2022/10/10 07:54:59;;;;;;;5.40;2.88;;;18.40;74.10;;;;;;10355416;28;20046;-39
2022/10/10 08:00:01;;;;;;;7.00;1.85;;;18.70;72.50;;;;;;10355682;28;20041;-41
2022/10/10 08:05:05;;;;;;;5.55;1.30;;;19.40;71.10;;;;;;10355268;28;20133;-42
2022/10/10 08:10:09;;;;;;;9.82;2.50;;;19.60;71.00;;;;;;10355143;28;20081;-38
2022/10/10 08:15:11;;;;;;;7.38;1.67;;;19.60;69.70;;;;;;10354694;28;20141;-40
2022/10/10 08:20:14;;;;;;;;;;;19.50;71.50;;;;;;10352989;28;20108;-38
2022/10/10 08:25:16;;;;;;;3.33;1.98;;;19.70;69.90;;;;;;10355338;28;20007;-36
2022/10/10 08:30:18;;;;;;;4.18;1.70;;;19.40;71.50;;;;;;10354999;28;20081;-37
2022/10/10 08:35:21;;;;;;;7.63;1.65;;;19.80;69.80;;;;;;10354100;28;20132;-40
2022/10/10 08:40:27;;;;;;;5.15;2.17;;;19.80;69.60;;;;;;10354404;28;20145;-41
2022/10/10 08:45:30;;;;;;;3.33;1.40;;;19.80;69.60;;;;;;10353293;28;20129;-40
2022/10/10 08:50:36;;;;;;;5.72;1.88;;;19.70;70.20;;;;;;10352472;28;20081;-40
2022/10/10 08:55:41;;;;;;;6.38;1.75;;;19.20;72.20;;;;;;10353238;28;20405;-39
2022/10/10 09:00:47;;;;;;;9.75;2.08;;;19.70;70.30;;;;;;10353403;28;20060;-40
2022/10/10 09:06:04;;;;;;;4.13;1.73;;;19.70;70.50;;;;;;10353516;28;20105;-39
2022/10/10 09:11:14;;;;;;;7.47;1.73;;;19.90;69.20;;;;;;10351886;28;20069;-42
2022/10/10 09:16:23;;;;;;;8.98;2.67;;;20.00;69.10;;;;;;10352134;28;20136;-39
2022/10/10 09:21:30;;;;;;;3.38;2.00;;;20.00;68.80;;;;;;10353892;28;20157;-40
2022/10/10 09:26:37;;;;;;;8.77;2.88;;;19.60;71.00;;;;;;10352403;28;20493;-41
2022/10/10 09:31:42;;;;;;;9.27;2.15;;;19.50;70.50;;;;;;10351702;28;20046;-40
2022/10/10 09:36:47;;;;;;;9.35;2.88;;;19.70;70.00;;;;;;10352479;28;20128;-40
2022/10/10 09:41:55;;;;;;;6.93;1.95;;;19.60;71.20;;;;;;10352198;28;20152;-40
2022/10/10 09:46:58;;;;;;;8.73;3.42;;;19.50;71.40;;;;;;10352028;28;20049;-40
2022/10/10 09:52:13;;;;;;;5.18;2.03;;;18.80;76.00;;;;;;10352909;28;20142;-41
2022/10/10 09:57:19;;;;;;;13.80;2.58;;;18.30;79.70;;;;;;10351257;28;20045;-37
2022/10/10 10:02:23;;;;;;;8.60;2.45;;;17.80;82.20;;;;;;10353533;28;20108;-39
2022/10/10 10:07:30;;;;;;;5.18;2.53;;;17.10;88.90;;;;;;10352845;28;20082;-38
2022/10/10 10:12:40;;;;;;;10.70;4.63;;;17.70;83.60;;;;;;10351025;28;20481;-38
2022/10/10 10:17:43;;;;;;;6.10;2.50;;;16.70;91.10;;;;;;10349664;28;20502;-41
2022/10/10 10:22:47;;;;;;;10.57;4.03;;;17.10;89.50;;;;;;10351377;28;20473;-39
2022/10/10 10:27:49;;;;;;;9.75;2.85;;;17.60;90.30;;;;;;10349728;28;20584;-39
2022/10/10 10:32:58;;;;;;;5.17;2.50;;;17.00;91.70;;;;;;10357625;28;20141;-41
2022/10/10 10:38:19;;;;;;;6.53;1.98;;;18.10;83.50;;;;;;10356965;28;20062;-41
2022/10/10 10:43:37;;;;;;;4.93;1.67;;;18.60;79.80;;;;;;10356543;28;20120;-39
2022/10/10 10:48:45;;;;;;;10.38;2.92;;;19.10;77.50;;;;;;10357032;28;20542;-38
2022/10/10 10:53:57;;;;;;;6.93;1.67;;;18.60;83.00;;;;;;10358821;28;20124;-38
2022/10/10 10:59:12;;;;;;;5.50;1.37;;;18.80;85.30;;;;;;10356314;28;20049;-40
2022/10/10 11:04:26;;;;;;;4.53;1.27;;;18.10;84.50;;;;;;10355124;28;20068;-38
2022/10/10 11:09:34;;;;;;;9.27;1.60;;;18.60;80.90;;;;;;10357688;28;20042;-40
2022/10/10 11:14:55;;;;;;;8.23;1.23;;;18.10;90.30;;;;;;10354275;28;20052;-41
2022/10/10 11:20:00;;;;;;;6.95;1.27;;;17.70;91.70;;;;;;10356002;28;20069;-40
2022/10/10 11:25:08;;;;;;;3.25;1.33;;;17.50;92.70;;;;;;10356004;28;20050;-39
2022/10/10 11:30:16;;;;;;;3.63;0.98;;;18.00;87.20;;;;;;10355000;28;20057;-40
2022/10/10 11:35:25;;;;;;;4.03;1.35;;;17.10;95.00;;;;;;10355261;28;20124;-38
2022/10/10 11:40:42;;;;;;;2.97;1.50;;;17.30;90.80;;;;;;10355706;28;20050;-39
2022/10/10 11:45:46;;;;;;;3.13;1.27;;;18.80;86.80;;;;;;10354481;28;20149;-41
2022/10/10 11:50:53;;;;;;;2.25;0.70;;;18.30;89.90;;;;;;10353917;28;20430;-38
2022/10/10 11:56:00;;;;;;;3.05;1.08;;;17.10;91.60;;;;;;10356339;28;20152;-38
2022/10/10 12:01:06;;;;;;;4.35;0.88;;;17.40;92.70;;;;;;10354771;28;20050;-36
2022/10/10 12:06:20;;;;;;;3.28;0.90;;;17.70;89.70;;;;;;10353819;28;20133;-38
2022/10/10 12:11:28;;;;;;;3.75;0.90;;;17.30;93.10;;;;;;10354454;28;20054;-39
2022/10/10 12:16:34;;;;;;;3.20;0.68;;;16.70;92.60;;;;;;10353521;28;20539;-39
2022/10/10 12:21:56;;;;;;;2.13;0.93;;;16.90;91.70;;;;;;10351880;28;20553;-38
2022/10/10 12:27:42;;;;;;;13.82;1.45;;;16.40;95.30;;;;;;10352688;28;20145;-40
2022/10/10 12:32:44;;;;;;;1.67;0.93;;;17.20;92.30;;;;;;10353434;28;20528;-39
2022/10/10 12:38:01;;;;;;;;;;;17.10;92.90;;;;;;10353484;28;20125;-37
2022/10/10 12:43:22;;;;;;;6.05;0.82;;;16.70;94.60;;;;;;10352702;28;19930;-39
2022/10/10 12:48:24;;;;;;;4.18;1.08;;;17.60;91.80;;;;;;10352239;28;20059;-40
2022/10/10 12:53:29;;;;;;;6.78;1.05;;;18.20;90.70;;;;;;10352277;28;20061;-38
2022/10/10 12:58:37;;;;;;;5.47;1.00;;;16.20;95.80;;;;;;10348107;28;20188;-39
2022/10/10 13:03:43;;;;;;;6.05;1.13;;;17.90;91.90;;;;;;10348904;28;20168;-39
2022/10/10 13:08:45;;;;;;;5.60;0.95;;;17.00;93.90;;;;;;10350468;28;20068;-39
2022/10/10 13:13:51;;;;;;;13.07;1.38;;;18.20;90.80;;;;;;10349650;28;20046;-43
2022/10/10 13:18:55;;;;;;;10.77;0.98;;;16.90;93.20;;;;;;10348222;28;20462;-37
2022/10/10 13:24:00;;;;;;;12.38;1.70;;;18.10;90.60;;;;;;10351532;28;20403;-37
2022/10/10 13:29:12;;;;;;;10.18;1.23;;;18.10;89.40;;;;;;10351407;28;20045;-39
2022/10/10 13:34:18;;;;;;;8.15;1.42;;;18.10;87.70;;;;;;10346091;28;20104;-39
2022/10/10 13:39:20;;;;;;;9.05;1.92;;;18.00;87.90;;;;;;10343781;28;20153;-40
2022/10/10 13:44:25;;;;;;;5.07;0.82;;;17.90;88.90;;;;;;10350191;28;20576;-39
2022/10/10 13:49:29;;;;;;;3.67;0.85;;;16.90;91.10;;;;;;10350651;28;20052;-41
2022/10/10 13:54:42;;;;;;;4.30;1.10;;;17.70;88.70;;;;;;10347847;28;20546;-37
2022/10/10 13:59:59;;;;;;;10.52;1.38;;;17.60;90.00;;;;;;10349427;28;20161;-38
2022/10/10 14:05:06;;;;;;;19.92;2.83;;;16.30;89.80;;;;;;10353425;28;20136;-42
2022/10/10 14:10:10;;;;;;;10.27;1.30;;;16.30;90.10;;;;;;10358805;28;20419;-43
2022/10/10 14:15:33;;;;;;;11.32;1.73;;;17.40;88.80;;;;;;10358658;28;20069;-40
2022/10/10 14:20:35;;;;;;;14.45;2.15;;;17.90;80.40;;;;;;10358041;28;20045;-40
2022/10/10 14:25:39;;;;;;;10.43;1.13;;;17.80;84.90;;;;;;10358937;28;20120;-43
2022/10/10 14:30:42;;;;;;;9.90;1.60;;;18.30;73.00;;;;;;10358211;28;20414;-39
2022/10/10 14:35:45;;;;;;;7.03;1.20;;;18.50;82.60;;;;;;10358565;28;20112;-41
2022/10/10 14:40:48;;;;;;;3.92;0.90;;;18.80;75.60;;;;;;10356911;28;20053;-41
2022/10/10 14:45:53;;;;;;;9.32;1.10;;;19.00;80.50;;;;;;10359487;28;20487;-41
2022/10/10 14:50:55;;;;;;;5.38;1.40;;;19.30;68.70;;;;;;10357998;28;20495;-40
2022/10/10 14:55:56;;;;;;;6.78;1.38;;;19.30;76.90;;;;;;10358491;28;20085;-37
2022/10/10 15:01:00;;;;;;;10.70;1.40;;;19.00;71.40;;;;;;10359781;28;20069;-45
2022/10/10 15:06:02;;;;;;;10.20;1.52;;;19.70;70.90;;;;;;10357151;28;20076;-43
2022/10/10 15:11:04;;;;;;;6.78;1.10;;;20.20;72.40;;;;;;10359162;28;20153;-41
2022/10/10 15:16:07;;;;;;;8.15;1.50;;;19.60;69.30;;;;;;10356176;28;20080;-39
2022/10/10 15:21:10;;;;;;;15.00;1.30;;;19.20;66.80;;;;;;10357172;28;20060;-38
2022/10/10 15:26:12;;;;;;;8.90;0.98;;;20.00;64.40;;;;;;10357528;28;20072;-41
2022/10/10 15:31:15;;;;;;;6.65;1.17;;;20.00;74.20;;;;;;10355286;28;20062;-41
2022/10/10 15:36:17;;;;;;;11.07;1.15;;;20.10;68.00;;;;;;10356138;28;20050;-40
2022/10/10 15:41:19;;;;;;;23.33;1.65;;;19.50;62.90;;;;;;10354858;28;20060;-40
2022/10/10 15:46:23;;;;;;;;;;;19.80;73.50;;;;;;10355925;28;20088;-40
2022/10/10 15:51:26;;;;;;;7.72;1.02;;;19.80;63.60;;;;;;10355459;28;19921;-48
2022/10/10 15:56:29;;;;;;;9.85;1.73;;;19.90;72.40;;;;;;10356827;28;20478;-44
2022/10/10 16:01:32;;;;;;;7.30;1.23;;;20.30;72.10;;;;;;10356027;28;20045;-46
2022/10/10 16:06:34;;;;;;;5.78;1.33;;;19.20;67.40;;;;;;10353076;28;20614;-40
2022/10/10 16:11:36;;;;;;;10.05;1.67;;;20.00;71.90;;;;;;10355725;28;20144;-41
2022/10/10 16:16:39;;;;;;;;;;;19.40;70.30;;;;;;10354514;28;20037;-40
2022/10/10 16:21:41;;;;;;;8.05;1.55;;;18.70;68.70;;;;;;10355150;28;20719;-40
2022/10/10 16:26:43;;;;;;;18.90;2.05;;;18.70;78.40;;;;;;10352236;28;20049;-40
2022/10/10 16:31:46;;;;;;;14.38;1.52;;;18.10;72.10;;;;;;10353410;28;20140;-40
2022/10/10 16:36:48;;;;;;;5.95;1.92;;;19.70;69.00;;;;;;10350467;28;20081;-39
2022/10/10 16:41:50;;;;;;;6.80;1.50;;;20.00;75.20;;;;;;10348557;28;20159;-39
2022/10/10 16:46:53;;;;;;;4.15;0.63;;;19.30;74.00;;;;;;10353397;28;20117;-39
2022/10/10 16:51:55;;;;;;;6.00;1.00;;;19.70;77.20;;;;;;10352416;28;20049;-42
2022/10/10 16:56:57;;;;;;;10.68;1.90;;;20.20;72.80;;;;;;10353660;28;20064;-38
2022/10/10 17:02:00;;;;;;;4.10;1.52;;;18.40;81.50;;;;;;10355958;28;20045;-39
2022/10/10 17:07:02;;;;;;;9.48;1.10;;;18.90;81.40;;;;;;10352845;28;20542;-45
2022/10/10 17:12:04;;;;;;;7.32;1.58;;;19.00;73.70;;;;;;10353035;28;20147;-40
2022/10/10 17:17:07;;;;;;;5.65;1.15;;;19.40;73.50;;;;;;10353154;28;20144;-45
2022/10/10 17:22:09;;;;;;;3.88;1.00;;;19.80;70.40;;;;;;10350994;28;20050;-43
2022/10/10 17:27:11;;;;;;;15.55;1.40;;;19.80;75.90;;;;;;10352746;28;20069;-41
2022/10/10 17:32:14;;;;;;;8.82;1.92;;;19.90;73.80;;;;;;10348532;28;20715;-43
2022/10/10 17:37:16;;;;;;;13.73;1.95;;;19.50;74.70;;;;;;10347699;28;20481;-39
2022/10/10 17:42:18;;;;;;;4.07;0.95;;;17.80;80.10;;;;;;10359006;28;20133;-41
2022/10/10 17:47:21;;;;;;;6.80;1.37;;;18.50;81.50;;;;;;10359844;28;20140;-38
2022/10/10 17:52:24;;;;;;;9.68;1.60;;;19.40;76.60;;;;;;10360207;28;20587;-43
2022/10/10 17:57:26;;;;;;;10.23;1.42;;;17.70;80.00;;;;;;10357586;28;21072;-41
2022/10/10 18:02:30;;;;;;;5.53;1.33;;;18.50;71.80;;;;;;10359559;28;20054;-41
2022/10/10 18:07:31;;;;;;;6.18;1.23;;;18.00;78.90;;;;;;10357231;28;20485;-42
2022/10/10 18:12:33;;;;;;;15.13;1.77;;;18.90;74.80;;;;;;10358687;28;20056;-39
2022/10/10 18:17:36;;;;;;;7.10;1.50;;;18.50;72.40;;;;;;10357715;28;20463;-40
2022/10/10 18:22:38;;;;;;;4.70;1.15;;;19.40;73.10;;;;;;10359155;28;20042;-40
2022/10/10 18:27:40;;;;;;;7.35;1.83;;;19.80;72.00;;;;;;10357039;28;20135;-39
2022/10/10 18:32:43;;;;;;;6.25;1.27;;;18.50;73.10;;;;;;10357221;28;20156;-41
2022/10/10 18:37:46;;;;;;;3.22;0.75;;;19.40;72.10;;;;;;10357166;28;20133;-44
2022/10/10 18:42:47;;;;;;;4.68;1.55;;;20.30;69.60;;;;;;10358051;28;20128;-42
2022/10/10 18:47:51;;;;;;;10.05;1.20;;;20.10;70.00;;;;;;10355699;28;20049;-39
2022/10/10 18:52:55;;;;;;;6.97;1.30;;;19.30;60.10;;;;;;10357248;28;20081;-42
2022/10/10 18:57:57;;;;;;;7.57;1.30;;;19.90;71.20;;;;;;10355860;28;20049;-39
2022/10/10 19:03:00;;;;;;;6.40;1.48;;;20.20;69.40;;;;;;10356809;28;20046;-40
2022/10/10 19:08:02;;;;;;;8.80;1.83;;;19.90;70.30;;;;;;10356986;28;20121;-43
2022/10/10 19:13:04;;;;;;;;;;;19.70;71.40;;;;;;10356449;28;20462;-40
2022/10/10 19:18:08;;;;;;;12.95;1.38;;;19.40;66.30;;;;;;10356041;28;19921;-42
2022/10/10 19:23:10;;;;;;;5.97;1.60;;;20.00;70.10;;;;;;10354939;28;20053;-45
2022/10/10 19:28:12;;;;;;;15.77;2.47;;;20.20;68.40;;;;;;10358189;28;20061;-40
2022/10/10 19:33:15;;;;;;;8.70;1.65;;;18.00;76.50;;;;;;10354829;28;20143;-39
2022/10/10 19:38:17;;;;;;;9.98;1.73;;;18.20;68.00;;;;;;10354768;28;20132;-40
2022/10/10 19:43:19;;;;;;;12.30;1.70;;;19.80;69.10;;;;;;10357284;28;20042;-40
2022/10/10 19:48:23;;;;;;;20.75;2.38;;;19.20;62.40;;;;;;10355591;28;20061;-43
2022/10/10 19:53:25;;;;;;;19.70;2.30;;;19.20;72.30;;;;;;10356685;28;20061;-40
2022/10/10 19:58:27;;;;;;;12.35;1.77;;;19.50;71.00;;;;;;10356389;28;20060;-42
2022/10/10 20:03:31;;;;;;;10.57;1.70;;;19.50;70.10;;;;;;10355252;28;20517;-38
2022/10/10 20:08:33;;;;;;;7.80;1.63;;;20.10;67.00;;;;;;10357472;28;20648;-41
2022/10/10 20:13:35;;;;;;;;;;;19.70;70.00;;;;;;10355680;28;20514;-40
2022/10/10 20:18:41;;;;;;;7.67;1.57;;;19.20;67.50;;;;;;10354720;28;19925;-42
2022/10/10 20:23:44;;;;;;;14.27;1.90;;;20.20;65.80;;;;;;10356630;28;20049;-44
2022/10/10 20:28:46;;;;;;;19.25;2.67;;;19.20;69.60;;;;;;10354260;28;20057;-38
2022/10/10 20:33:51;;;;;;;15.65;1.73;;;19.90;67.40;;;;;;10356159;28;20124;-39
2022/10/10 20:38:53;;;;;;;12.52;2.63;;;20.20;66.00;;;;;;10356082;28;20743;-36
2022/10/10 20:43:56;;;;;;;;;;;20.40;65.60;;;;;;10355656;28;20121;-41
2022/10/10 20:49:02;;;;;;;12.43;2.80;;;20.00;67.30;;;;;;10353895;28;19925;-38
2022/10/10 20:54:05;;;;;;;12.38;2.50;;;20.30;66.40;;;;;;10352132;28;20854;-37
2022/10/10 20:59:09;;;;;;;16.33;1.85;;;20.40;65.80;;;;;;10350010;28;20049;-40
2022/10/10 21:04:13;;;;;;;18.65;2.67;;;20.40;65.70;;;;;;10353391;28;20045;-39
2022/10/10 21:09:15;;;;;;;9.82;2.08;;;20.20;65.80;;;;;;10353572;28;20054;-39
2022/10/10 21:14:17;;;;;;;13.20;1.55;;;20.30;65.80;;;;;;10354799;28;20042;-42
2022/10/10 21:19:21;;;;;;;13.07;2.00;;;20.30;65.70;;;;;;10356347;28;20054;-40
2022/10/10 21:24:23;;;;;;;5.60;1.25;;;20.20;65.90;;;;;;10355612;28;20088;-40
2022/10/10 21:29:25;;;;;;;8.98;1.20;;;20.30;65.70;;;;;;10355375;28;20093;-37
2022/10/10 21:34:28;;;;;;;7.57;2.08;;;20.20;65.70;;;;;;10352093;28;20443;-40
2022/10/10 21:39:30;;;;;;;12.43;2.25;;;20.20;65.80;;;;;;10349775;28;20045;-40
2022/10/10 21:44:32;;;;;;;8.90;1.52;;;20.20;66.00;;;;;;10337573;28;20052;-39
2022/10/10 21:49:35;;;;;;;4.47;1.33;;;20.20;65.80;;;;;;10345988;28;20141;-40
2022/10/10 21:54:37;;;;;;;7.30;1.02;;;20.20;65.90;;;;;;10352137;28;20046;-38
2022/10/10 21:59:39;;;;;;;9.13;1.40;;;20.10;65.90;;;;;;10348885;28;20486;-45
2022/10/10 22:04:42;;;;;;;6.35;1.35;;;20.10;66.10;;;;;;10351427;28;20127;-41
2022/10/10 22:09:44;;;;;;;11.25;1.40;;;20.10;65.90;;;;;;10351734;28;20124;-42
2022/10/10 22:14:46;;;;;;;4.55;0.80;;;20.10;65.90;;;;;;10352718;28;20111;-38
2022/10/10 22:19:49;;;;;;;6.38;1.50;;;20.10;66.00;;;;;;10352097;28;20557;-42
2022/10/10 22:24:51;;;;;;;2.50;0.50;;;20.10;66.00;;;;;;10354977;28;20084;-46
2022/10/10 22:29:53;;;;;;;4.68;1.20;;;20.10;65.80;;;;;;10361326;28;20058;-39
2022/10/10 22:34:56;;;;;;;9.27;1.15;;;20.10;65.80;;;;;;10361549;28;20489;-39
2022/10/10 22:39:58;;;;;;;6.85;1.38;;;20.10;65.90;;;;;;10361400;28;20092;-41
2022/10/10 22:45:00;;;;;;;6.78;1.17;;;20.10;66.00;;;;;;10358006;28;20368;-43
2022/10/10 22:50:04;;;;;;;10.40;1.50;;;20.10;66.00;;;;;;10358708;28;20125;-40
2022/10/10 22:55:07;;;;;;;8.32;1.50;;;20.10;66.10;;;;;;10358878;28;20149;-42
2022/10/10 23:00:11;;;;;;;6.80;1.25;;;20.10;66.10;;;;;;10358880;28;20058;-44
2022/10/10 23:05:14;;;;;;;5.03;1.02;;;20.00;66.10;;;;;;10357871;28;20056;-41
2022/10/10 23:10:16;;;;;;;6.85;1.10;;;20.10;66.10;;;;;;10356244;28;20160;-40
2022/10/10 23:15:18;;;;;;;5.32;0.73;;;20.10;66.00;;;;;;10358609;28;20056;-43
2022/10/10 23:20:21;;;;;;;3.38;0.65;;;20.00;66.20;;;;;;10359200;28;20073;-38
2022/10/10 23:25:23;;;;;;;3.10;0.77;;;20.00;66.10;;;;;;10359303;28;20073;-37
2022/10/10 23:30:25;;;;;;;3.63;1.13;;;20.10;66.20;;;;;;10359284;28;20492;-40
2022/10/10 23:35:28;;;;;;;2.80;1.17;;;20.00;66.10;;;;;;10357788;28;20091;-41
2022/10/10 23:40:31;;;;;;;3.00;0.77;;;20.00;66.20;;;;;;10358741;28;20073;-46
2022/10/10 23:45:33;;;;;;;4.40;0.73;;;19.90;66.40;;;;;;10359795;28;20088;-43
2022/10/10 23:50:36;;;;;;;2.75;0.90;;;20.00;66.10;;;;;;10357790;28;20073;-44
2022/10/10 23:55:38;;;;;;;5.05;1.00;;;20.10;66.20;;;;;;10357396;28;20073;-41
